Time;durP1;ratioP1;P1;durP2;ratioP2;P2;SDS_P1;SDS_P2;PMS_P1;PMS_P2;Temp;Humidity;BMP_temperature;BMP_pressure;BME280_temperature;BME280_humidity;BME280_pressure;Samples;Min_cycle;Max_cycle;Signal;HPM_P1;HPM_P2
2022/06/20 00:00:58;;;;;;;;;29.00;28.50;;;;;21.97;57.94;100571.78;2110373;27;47895;-58
2022/06/20 00:01:59;;;;;;;;;31.40;30.00;;;;;21.98;57.82;100566.31;2103922;28;48012;-60
2022/06/20 00:03:00;;;;;;;;;25.75;25.25;;;;;22.01;58.13;100566.09;2103550;28;47627;-59
2022/06/20 00:04:01;;;;;;;;;32.80;30.60;;;;;22.04;58.26;100576.66;2111480;27;47939;-59
2022/06/20 00:05:03;;;;;;;;;33.75;30.75;;;;;22.07;58.26;100590.97;2112423;27;45959;-60
2022/06/20 00:06:04;;;;;;;;;29.20;28.40;;;;;22.07;57.98;100597.22;2111544;27;47431;-59
2022/06/20 00:07:05;;;;;;;;;29.00;28.25;;;;;22.09;57.96;100603.38;2111357;27;47638;-58
2022/06/20 00:08:06;;;;;;;;;29.50;28.25;;;;;22.12;57.91;100610.44;2112778;27;48051;-58
2022/06/20 00:09:06;;;;;;;;;30.60;28.00;;;;;22.12;57.72;100616.69;2111898;27;47713;-58
2022/06/20 00:10:09;;;;;;;;;27.75;27.75;;;;;22.14;57.80;100617.44;2111508;27;47108;-58
2022/06/20 00:11:13;;;;;;;;;28.80;25.60;;;;;22.15;57.86;100616.47;2112776;27;47346;-59
2022/06/20 00:12:24;;;;;;;;;28.60;27.60;;;;;22.17;57.88;100609.13;2111642;27;47863;-58
2022/06/20 00:13:28;;;;;;;;;32.20;27.80;;;;;22.17;58.11;100611.81;2112320;27;47425;-58
2022/06/20 00:14:28;;;;;;;;;26.20;26.00;;;;;22.18;57.48;100609.97;2114227;27;47982;-57
2022/06/20 00:15:33;;;;;;;;;28.75;26.25;;;;;22.20;57.91;100608.03;2114065;27;47902;-58
2022/06/20 00:16:33;;;;;;;;;28.00;27.80;;;;;22.22;57.37;100611.47;2113969;27;47873;-58
2022/06/20 00:17:34;;;;;;;;;27.50;27.50;;;;;22.24;57.80;100599.59;2114228;27;47517;-58
2022/06/20 00:18:34;;;;;;;;;31.25;28.25;;;;;22.26;57.89;100596.78;2113329;27;47654;-58
2022/06/20 00:19:35;;;;;;;;;27.75;26.75;;;;;22.27;57.71;100599.38;2114112;27;47578;-59
2022/06/20 00:20:35;;;;;;;;;26.50;26.00;;;;;22.31;57.34;100600.00;2113158;27;47424;-59
2022/06/20 00:21:37;;;;;;;;;28.25;28.25;;;;;22.32;57.67;100590.91;2113208;27;47429;-57
2022/06/20 00:22:37;;;;;;;;;27.20;25.80;;;;;22.35;57.68;100593.38;2102497;27;47806;-58
2022/06/20 00:23:38;;;;;;;;;28.50;28.25;;;;;22.35;57.67;100596.09;2099445;28;47269;-58
2022/06/20 00:24:38;;;;;;;;;28.00;26.75;;;;;22.36;57.62;100605.97;2103832;28;48089;-57
2022/06/20 00:25:40;;;;;;;;;26.00;26.00;;;;;22.38;57.31;100611.25;2114230;27;47979;-59
2022/06/20 00:26:40;;;;;;;;;27.80;26.00;;;;;22.37;57.43;100613.09;2112813;27;47970;-59
2022/06/20 00:27:41;;;;;;;;;31.00;29.75;;;;;22.37;57.58;100604.97;2114529;27;47093;-59
2022/06/20 00:28:42;;;;;;;;;28.75;26.75;;;;;22.38;57.77;100612.13;2113078;27;47254;-59
2022/06/20 00:29:44;;;;;;;;;29.40;28.20;;;;;22.38;57.53;100622.94;2113036;27;47978;-58
2022/06/20 00:30:44;;;;;;;;;30.00;28.80;;;;;22.38;57.32;100624.78;2114052;27;47741;-60
2022/06/20 00:31:45;;;;;;;;;26.25;25.25;;;;;22.38;57.65;100617.53;2113034;27;47204;-58
2022/06/20 00:32:46;;;;;;;;;27.75;27.75;;;;;22.39;57.25;100621.97;2110958;27;47581;-58
2022/06/20 00:33:46;;;;;;;;;28.40;28.40;;;;;22.38;57.14;100617.53;2104204;28;47766;-59
2022/06/20 00:34:47;;;;;;;;;30.00;29.00;;;;;22.38;57.63;100617.53;2109379;27;47767;-59
2022/06/20 00:35:47;;;;;;;;;28.25;27.50;;;;;22.39;57.55;100613.84;2114296;27;47429;-59
2022/06/20 00:36:48;;;;;;;;;30.25;27.50;;;;;22.40;57.67;100598.47;2113020;27;48172;-57
2022/06/20 00:37:50;;;;;;;;;36.60;32.40;;;;;22.41;57.63;100584.00;2113427;27;47649;-57
2022/06/20 00:38:56;;;;;;;;;29.00;28.80;;;;;22.43;57.46;100584.72;2114070;27;48364;-58
2022/06/20 00:39:57;;;;;;;;;29.60;28.20;;;;;22.43;57.69;100582.03;2113224;27;47757;-60
2022/06/20 00:41:01;;;;;;;;;29.75;26.75;;;;;22.44;57.88;100575.66;2113108;27;47280;-58
2022/06/20 00:42:02;;;;;;;;;29.80;28.40;;;;;22.43;57.76;100563.09;2114197;27;47596;-59
2022/06/20 00:43:05;;;;;;;;;28.00;27.00;;;;;22.45;57.41;100555.72;2113224;27;47889;-59
2022/06/20 00:44:13;;;;;;;;;27.40;26.80;;;;;22.45;57.79;100540.38;2112574;27;47989;-59
2022/06/20 00:45:14;;;;;;;;;28.20;26.00;;;;;22.46;58.30;100530.41;2096473;28;48155;-59
2022/06/20 00:46:25;;;;;;;;;24.75;24.00;;;;;22.47;58.91;100541.13;2101906;27;47950;-59
2022/06/20 00:47:31;;;;;;;;;28.80;28.20;;;;;22.46;58.38;100528.56;2113002;27;47606;-59
2022/06/20 00:48:48;;;;;;;;;27.20;24.80;;;;;22.46;58.39;100533.13;2113985;27;47796;-59
2022/06/20 00:49:59;;;;;;;;;29.60;27.60;;;;;22.47;58.35;100533.00;2113681;27;47763;-59
2022/06/20 00:51:08;;;;;;;;;25.60;25.00;;;;;22.46;57.91;100547.50;2113032;27;48085;-59
2022/06/20 00:52:21;;;;;;;;;27.20;26.00;;;;;22.46;58.21;100561.03;2113035;27;47366;-59
2022/06/20 00:53:31;;;;;;;;;29.80;27.00;;;;;22.42;58.24;100559.53;2114006;27;47562;-59
2022/06/20 00:54:52;;;;;;;;;22.40;22.40;;;;;22.44;58.48;100573.81;2108432;27;48083;-57
2022/06/20 00:56:04;;;;;;;;;28.00;25.40;;;;;22.45;60.89;100577.38;2107835;27;47579;-59
2022/06/20 00:57:11;;;;;;;;;29.60;27.80;;;;;22.44;59.41;100587.31;2111263;27;47327;-57
2022/06/20 00:58:44;;;;;;;;;29.40;26.00;;;;;22.40;58.88;100585.81;2114199;27;48056;-58
2022/06/20 00:59:49;;;;;;;;;29.40;27.40;;;;;22.39;57.95;100594.06;2078392;28;47624;-59
2022/06/20 01:00:50;;;;;;;;;29.00;27.20;;;;;22.37;58.42;100604.13;2075844;28;48133;-58
2022/06/20 01:01:51;;;;;;;;;27.25;26.50;;;;;22.38;58.10;100612.13;2079249;28;47917;-58
2022/06/20 01:02:57;;;;;;;;;31.20;29.00;;;;;22.39;58.69;100611.13;2078893;28;47840;-57
2022/06/20 01:04:04;;;;;;;;;32.00;29.60;;;;;22.40;58.01;100612.88;2078225;28;47731;-60
2022/06/20 01:05:14;;;;;;;;;27.80;27.00;;;;;22.42;58.04;100612.75;2079245;28;47728;-58
2022/06/20 01:06:29;;;;;;;;;23.20;23.20;;;;;22.42;58.19;100620.88;2079157;28;46991;-58
2022/06/20 01:07:48;;;;;;;;;26.00;26.00;;;;;22.41;58.32;100636.22;2078325;28;47827;-57
2022/06/20 01:09:02;;;;;;;;;27.40;27.40;;;;;22.40;58.06;100639.91;2078135;28;46676;-58
2022/06/20 01:10:04;;;;;;;;;27.00;24.80;;;;;22.41;58.30;100643.47;2078782;28;47667;-57
2022/06/20 01:11:12;;;;;;;;;21.60;20.40;;;;;22.42;59.25;100643.34;2038212;28;48089;-58
2022/06/20 01:12:17;;;;;;;;;25.60;25.60;;;;;22.41;59.16;100651.59;2050997;28;47817;-58
2022/06/20 01:13:20;;;;;;;;;27.60;25.40;;;;;22.39;59.57;100653.53;2078915;28;47893;-58
2022/06/20 01:14:37;;;;;;;;;22.40;22.40;;;;;22.40;59.39;100656.13;2078617;28;47542;-58
2022/06/20 01:15:40;;;;;;;;;27.60;26.00;;;;;22.39;58.79;100646.28;2078425;28;48511;-58
2022/06/20 01:16:40;;;;;;;;;28.00;27.00;;;;;22.41;58.75;100648.88;2077317;28;48070;-58
2022/06/20 01:17:41;;;;;;;;;27.50;25.50;;;;;22.42;58.81;100653.31;2070743;28;47690;-59
2022/06/20 01:18:46;;;;;;;;;27.75;25.50;;;;;22.42;59.01;100648.75;2070775;28;47697;-59
2022/06/20 01:20:00;;;;;;;;;21.60;21.60;;;;;22.42;58.64;100646.06;2071168;28;48060;-57
2022/06/20 01:21:04;;;;;;;;;27.80;26.00;;;;;22.40;58.67;100645.31;2079197;28;47805;-56
2022/06/20 01:22:29;;;;;;;;;25.40;24.80;;;;;22.38;58.79;100644.56;2074692;28;48223;-56
2022/06/20 01:23:36;;;;;;;;;25.60;25.40;;;;;22.39;58.51;100637.31;2071723;28;47820;-59
2022/06/20 01:24:51;;;;;;;;;25.00;24.20;;;;;22.38;58.12;100631.03;2073214;28;47062;-58
2022/06/20 01:26:16;;;;;;;;;23.80;23.20;;;;;22.40;58.10;100631.78;2078717;28;47921;-59
2022/06/20 01:27:31;;;;;;;;;22.80;22.80;;;;;22.41;58.11;100622.69;2070851;28;48129;-56
2022/06/20 01:28:36;;;;;;;;;23.20;23.20;;;;;22.41;58.32;100621.84;2076678;28;48125;-58
2022/06/20 01:29:37;;;;;;;;;28.80;26.60;;;;;22.41;58.55;100611.03;2078231;28;48271;-59
2022/06/20 01:30:41;;;;;;;;;29.00;27.00;;;;;22.40;58.26;100601.19;2078827;28;47573;-59
2022/06/20 01:31:53;;;;;;;;;27.40;26.20;;;;;22.37;58.07;100594.16;2078426;28;47957;-58
2022/06/20 01:32:57;;;;;;;;;25.20;25.20;;;;;22.37;58.53;100594.16;2078674;28;47555;-59
2022/06/20 01:34:00;;;;;;;;;25.20;25.20;;;;;22.36;58.07;100588.84;2079421;28;47883;-59
2022/06/20 01:35:04;;;;;;;;;24.80;24.40;;;;;22.37;58.14;100585.19;2071853;28;47149;-57
2022/06/20 01:37:26;;;;;;;;;24.00;23.60;;;;;22.37;58.28;100569.84;2113259;27;47937;-59
2022/06/20 01:38:28;;;;;;;;;26.00;25.20;;;;;22.37;58.37;100563.56;2113607;27;47304;-59
2022/06/20 01:39:28;;;;;;;;;26.60;25.00;;;;;22.36;58.59;100559.09;2112848;27;48124;-58
2022/06/20 01:40:29;;;;;;;;;27.00;26.50;;;;;22.35;58.26;100554.69;2113662;27;47565;-58
2022/06/20 01:42:51;;;;;;;;;25.60;25.60;;;;;22.30;58.75;100533.41;2112732;27;47673;-59
2022/06/20 01:43:55;;;;;;;;;24.40;23.80;;;;;22.29;58.47;100531.66;2113030;27;47713;-59
2022/06/20 01:45:57;;;;;;;;;25.00;22.40;;;;;22.27;58.73;100520.97;2113234;27;47345;-58
2022/06/20 01:46:30;;;;;;;;;28.60;28.20;;;;;22.27;58.29;100517.41;2112727;27;47478;-58
2022/06/20 01:47:31;;;;;;;;;26.40;25.80;;;;;22.26;59.25;100521.09;2112831;27;47942;-59
2022/06/20 01:48:33;;;;;;;;;24.40;24.40;;;;;22.23;57.97;100510.47;2113741;27;48221;-59
2022/06/20 01:49:36;;;;;;;;;19.20;18.60;;;;;22.19;57.96;100507.16;2112881;27;45894;-57
2022/06/20 01:50:38;;;;;;;;;23.00;21.40;;;;;22.16;58.00;100499.28;2112929;27;47590;-58
2022/06/20 01:51:41;;;;;;;;;28.00;25.60;;;;;22.13;58.39;100490.53;2113588;27;47744;-59
2022/06/20 01:52:43;;;;;;;;;27.40;24.20;;;;;22.09;58.24;100478.19;2112738;27;47344;-58
2022/06/20 01:53:45;;;;;;;;;27.00;25.00;;;;;22.07;58.72;100472.91;2112938;27;48012;-59
2022/06/20 01:54:54;;;;;;;;;29.80;28.40;;;;;22.08;59.22;100462.97;2106803;27;47595;-58
2022/06/20 01:55:55;;;;;;;;;28.80;27.00;;;;;22.09;58.93;100456.56;2081331;28;47219;-59
2022/06/20 01:56:56;;;;;;;;;28.20;27.60;;;;;22.10;59.10;100447.50;2086514;28;47740;-59
2022/06/20 01:58:11;;;;;;;;;27.20;24.60;;;;;22.10;59.10;100439.38;2111292;27;48089;-59
2022/06/20 01:59:35;;;;;;;;;24.80;24.20;;;;;22.07;59.36;100431.50;2109493;27;47960;-59
2022/06/20 02:00:36;;;;;;;;;25.80;24.60;;;;;22.04;58.90;100411.81;2108907;27;48043;-59
2022/06/20 02:01:37;;;;;;;;;24.50;23.50;;;;;22.03;59.09;100401.13;2113311;27;47795;-59
2022/06/20 02:02:44;;;;;;;;;25.80;24.60;;;;;22.00;58.92;100386.00;2112489;27;48016;-59
2022/06/20 02:03:47;;;;;;;;;26.60;25.20;;;;;21.97;59.25;100370.00;2112663;27;47644;-59
2022/06/20 02:04:49;;;;;;;;;27.40;26.60;;;;;21.95;58.88;100350.34;2113095;27;47800;-59
2022/06/20 02:05:55;;;;;;;;;28.40;28.40;;;;;21.94;59.27;100326.16;2113315;27;47993;-59
2022/06/20 02:06:56;;;;;;;;;26.60;26.60;;;;;21.89;59.60;100288.69;2112487;27;47559;-58
2022/06/20 02:08:00;;;;;;;;;26.00;25.25;;;;;21.85;58.91;100251.19;2113250;27;47536;-59
2022/06/20 02:09:01;;;;;;;;;26.40;25.40;;;;;21.82;59.35;100221.72;2112543;27;47382;-58
2022/06/20 02:10:04;;;;;;;;;25.75;21.00;;;;;21.77;59.01;100192.38;2104415;28;47388;-58
2022/06/20 02:11:08;;;;;;;;;26.20;26.20;;;;;21.74;59.46;100188.06;2104098;27;48011;-58
2022/06/20 02:12:11;;;;;;;;;28.60;27.00;;;;;21.69;59.94;100184.84;2113452;27;47983;-59
2022/06/20 02:13:13;;;;;;;;;25.80;25.60;;;;;21.65;60.10;100179.81;2104112;28;48461;-59
2022/06/20 02:14:25;;;;;;;;;27.00;25.20;;;;;21.60;60.04;100163.09;2103623;27;48077;-59
2022/06/20 02:15:27;;;;;;;;;25.80;23.40;;;;;21.56;60.09;100175.94;2112806;27;47758;-59
2022/06/20 02:16:32;;;;;;;;;24.40;24.40;;;;;21.54;60.30;100174.34;2113240;27;48533;-59
2022/06/20 02:17:40;;;;;;;;;23.20;22.60;;;;;21.51;60.26;100186.25;2113513;27;47772;-59
2022/06/20 02:18:44;;;;;;;;;25.40;24.80;;;;;21.50;60.56;100197.16;2112879;27;47670;-58
2022/06/20 02:19:52;;;;;;;;;25.80;24.60;;;;;21.51;60.33;100207.00;2103994;28;47788;-59
2022/06/20 02:20:57;;;;;;;;;22.20;21.40;;;;;21.51;60.54;100225.88;2105201;27;47547;-59
2022/06/20 02:22:02;;;;;;;;;28.60;26.20;;;;;21.52;60.25;100239.28;2106612;27;47737;-58
2022/06/20 02:23:02;;;;;;;;;22.40;22.00;;;;;21.52;59.97;100263.56;2094508;28;47684;-57
2022/06/20 02:24:11;;;;;;;;;26.50;26.50;;;;;21.54;60.16;100279.66;2104222;28;48367;-58
2022/06/20 02:25:16;;;;;;;;;23.60;21.60;;;;;21.54;60.42;100296.72;2105576;27;47826;-58
2022/06/20 02:26:20;;;;;;;;;26.80;25.00;;;;;21.54;59.90;100312.06;2104727;27;47404;-59
2022/06/20 02:27:32;;;;;;;;;23.40;22.80;;;;;21.54;59.85;100304.81;2106365;27;46115;-57
2022/06/20 02:28:47;;;;;;;;;26.80;26.00;;;;;21.53;60.49;100308.50;2104683;28;47953;-58
2022/06/20 02:29:47;;;;;;;;;24.00;22.60;;;;;21.53;60.35;100313.88;2104831;28;47135;-57
2022/06/20 02:30:47;;;;;;;;;26.00;23.00;;;;;21.55;60.14;100324.56;2104698;28;47552;-59
2022/06/20 02:31:55;;;;;;;;;24.50;23.25;;;;;21.55;59.92;100338.06;2086215;28;47590;-58
2022/06/20 02:33:04;;;;;;;;;25.40;25.40;;;;;21.55;60.44;100355.13;2080792;28;47994;-58
2022/06/20 02:34:04;;;;;;;;;25.80;24.40;;;;;21.56;60.59;100369.50;2097231;28;48055;-59
2022/06/20 02:35:08;;;;;;;;;23.50;22.50;;;;;21.56;60.22;100377.59;2104697;28;47397;-59
2022/06/20 02:36:09;;;;;;;;;23.80;23.80;;;;;21.57;60.61;100387.41;2104342;27;48628;-59
2022/06/20 02:37:13;;;;;;;;;22.50;22.50;;;;;21.61;60.46;100402.44;2104717;28;47773;-59
2022/06/20 02:38:14;;;;;;;;;25.40;24.40;;;;;21.63;59.99;100405.91;2104312;28;47957;-59
2022/06/20 02:39:15;;;;;;;;;23.75;22.00;;;;;21.66;60.01;100413.78;2086754;28;47621;-59
2022/06/20 02:40:19;;;;;;;;;23.50;22.50;;;;;21.68;59.96;100419.91;2079856;28;47450;-59
2022/06/20 02:41:24;;;;;;;;;23.80;23.80;;;;;21.71;59.84;100425.09;2098486;28;47674;-59
2022/06/20 02:42:34;;;;;;;;;24.00;23.40;;;;;21.73;60.06;100437.53;2104600;28;48259;-60
2022/06/20 02:43:46;;;;;;;;;22.40;19.60;;;;;21.73;60.14;100442.06;2086805;28;47451;-59
2022/06/20 02:44:48;;;;;;;;;20.60;20.60;;;;;21.75;60.01;100442.81;2090471;28;47702;-60
2022/06/20 02:45:51;;;;;;;;;17.80;17.80;;;;;21.77;59.95;100453.50;2104707;28;47837;-59
2022/06/20 02:46:54;;;;;;;;;26.00;25.80;;;;;21.77;59.69;100456.22;2096424;28;47978;-59
2022/06/20 02:47:59;;;;;;;;;22.00;22.00;;;;;21.79;59.74;100465.06;2099014;28;46354;-58
2022/06/20 02:49:02;;;;;;;;;21.20;21.20;;;;;21.80;60.11;100467.66;2103998;28;47745;-59
2022/06/20 02:50:04;;;;;;;;;22.60;19.40;;;;;21.83;60.03;100464.72;2103658;28;47738;-59
2022/06/20 02:51:07;;;;;;;;;20.60;20.60;;;;;21.86;60.42;100479.88;2086009;28;48012;-59
2022/06/20 02:52:16;;;;;;;;;24.20;22.20;;;;;21.86;60.39;100471.75;2087012;28;47704;-59
2022/06/20 02:53:26;;;;;;;;;21.40;21.40;;;;;21.84;59.82;100479.94;2103546;28;47447;-60
2022/06/20 02:54:30;;;;;;;;;21.60;21.60;;;;;21.84;59.81;100481.78;2103204;27;47711;-60
2022/06/20 02:55:34;;;;;;;;;20.60;20.60;;;;;21.83;60.16;100480.94;2103477;28;47748;-59
2022/06/20 02:56:43;;;;;;;;;21.00;21.00;;;;;21.80;60.14;100483.00;2095322;28;47979;-58
2022/06/20 02:57:55;;;;;;;;;24.80;23.80;;;;;21.79;59.60;100481.28;2099832;28;46928;-59
2022/06/20 02:59:05;;;;;;;;;21.00;21.00;;;;;21.81;60.05;100495.53;2103813;28;48067;-59
2022/06/20 03:00:13;;;;;;;;;23.60;23.60;;;;;21.81;60.30;100493.69;2103370;28;48242;-60
2022/06/20 03:01:40;;;;;;;;;22.20;22.20;;;;;21.81;60.03;100496.38;2103491;27;47664;-59
2022/06/20 03:02:45;;;;;;;;;20.40;19.40;;;;;21.81;60.13;100496.38;2103422;28;47755;-60
2022/06/20 03:03:51;;;;;;;;;21.40;20.40;;;;;21.83;60.46;100486.31;2103539;28;48225;-59
2022/06/20 03:04:51;;;;;;;;;22.80;22.00;;;;;21.84;60.55;100481.78;2103560;28;47513;-60
2022/06/20 03:05:52;;;;;;;;;21.75;20.50;;;;;21.84;60.25;100485.34;2103324;28;47934;-60
2022/06/20 03:07:00;;;;;;;;;25.25;22.75;;;;;21.85;60.03;100479.00;2103629;27;47634;-59
2022/06/20 03:08:01;;;;;;;;;22.40;21.80;;;;;21.83;60.48;100480.06;2103548;28;48209;-60
2022/06/20 03:09:02;;;;;;;;;24.25;23.50;;;;;21.83;59.65;100482.75;2103567;28;47469;-61
2022/06/20 03:10:28;;;;;;;;;24.60;24.60;;;;;21.82;60.02;100486.44;2103760;28;47701;-59
2022/06/20 03:11:31;;;;;;;;;23.40;23.00;;;;;21.84;60.10;100500.69;2094769;28;48112;-59
2022/06/20 03:12:32;;;;;;;;;21.20;21.20;;;;;21.84;60.25;100509.66;2101489;28;47759;-60
2022/06/20 03:13:36;;;;;;;;;22.00;21.25;;;;;21.83;60.56;100507.06;2103518;28;47962;-59
2022/06/20 03:14:46;;;;;;;;;24.80;24.80;;;;;21.82;60.62;100519.72;2103568;28;48005;-56
2022/06/20 03:15:49;;;;;;;;;21.00;21.00;;;;;21.82;59.96;100525.13;2103436;28;47433;-59
2022/06/20 03:16:50;;;;;;;;;26.00;26.00;;;;;21.84;60.12;100533.13;2103481;28;48292;-58
2022/06/20 03:17:53;;;;;;;;;21.75;21.75;;;;;21.84;60.02;100533.97;2103508;28;47948;-58
2022/06/20 03:18:57;;;;;;;;;22.00;21.00;;;;;21.85;60.34;100542.94;2103546;28;47800;-57
2022/06/20 03:20:03;;;;;;;;;21.60;20.40;;;;;21.86;59.94;100542.88;2103378;28;45911;-58
2022/06/20 03:21:05;;;;;;;;;20.60;20.60;;;;;21.88;59.70;100542.75;2087026;28;47627;-59
2022/06/20 03:22:11;;;;;;;;;25.20;24.60;;;;;21.88;59.57;100540.06;2090716;28;47709;-59
2022/06/20 03:23:19;;;;;;;;;21.40;21.40;;;;;21.89;59.61;100544.47;2070582;28;47449;-59
2022/06/20 03:24:24;;;;;;;;;24.00;23.40;;;;;21.89;60.00;100548.03;2081348;28;47709;-59
2022/06/20 03:25:25;;;;;;;;;24.00;18.80;;;;;21.88;59.59;100549.03;2100759;28;47972;-59
2022/06/20 03:26:26;;;;;;;;;21.50;21.00;;;;;21.88;60.08;100559.81;2105968;27;47759;-58
2022/06/20 03:27:30;;;;;;;;;21.00;20.80;;;;;21.88;60.11;100549.03;2104115;27;47788;-59
2022/06/20 03:28:32;;;;;;;;;22.00;19.60;;;;;21.88;60.08;100562.53;2103978;28;47567;-58
2022/06/20 03:29:37;;;;;;;;;21.20;21.20;;;;;21.88;59.96;100562.53;2104307;28;47677;-57
2022/06/20 03:30:37;;;;;;;;;22.40;21.00;;;;;21.86;59.82;100567.19;2096389;27;47507;-59
2022/06/20 03:31:38;;;;;;;;;21.50;21.50;;;;;21.88;59.83;100567.06;2090331;28;48179;-59
2022/06/20 03:32:38;;;;;;;;;21.00;19.00;;;;;21.90;59.24;100567.81;2095353;28;47632;-59
2022/06/20 03:33:39;;;;;;;;;22.00;20.00;;;;;21.90;59.96;100565.97;2104239;28;47832;-55
2022/06/20 03:34:40;;;;;;;;;24.80;24.80;;;;;21.89;59.21;100579.59;2104526;28;47660;-57
2022/06/20 03:35:46;;;;;;;;;24.00;24.00;;;;;21.88;58.93;100572.47;2104605;28;47859;-58
2022/06/20 03:36:49;;;;;;;;;23.00;21.60;;;;;21.87;59.43;100585.13;2104261;28;47850;-58
2022/06/20 03:37:49;;;;;;;;;23.00;22.60;;;;;21.86;58.91;100585.22;2104389;28;47680;-58
2022/06/20 03:38:51;;;;;;;;;21.50;21.50;;;;;21.85;58.99;100583.47;2094214;28;48007;-57
2022/06/20 03:39:51;;;;;;;;;21.00;20.20;;;;;21.84;58.96;100588.00;2094586;28;47403;-58
2022/06/20 03:40:52;;;;;;;;;26.00;24.00;;;;;21.83;59.50;100593.53;2104325;28;47441;-58
2022/06/20 03:41:52;;;;;;;;;21.80;21.80;;;;;21.81;59.42;100590.94;2103844;28;47236;-58
2022/06/20 03:42:56;;;;;;;;;21.25;20.25;;;;;21.81;58.92;100600.88;2085981;28;47872;-57
2022/06/20 03:44:05;;;;;;;;;21.20;21.20;;;;;21.81;58.64;100603.56;2087626;28;47502;-58
2022/06/20 03:45:08;;;;;;;;;25.60;25.00;;;;;21.80;58.88;100602.72;2104072;28;48206;-58
2022/06/20 03:46:20;;;;;;;;;20.20;20.20;;;;;21.78;59.15;100604.66;2104087;28;47793;-57
2022/06/20 03:47:33;;;;;;;;;24.40;24.00;;;;;21.76;58.72;100608.44;2086430;28;47641;-57
2022/06/20 03:48:41;;;;;;;;;21.60;21.00;;;;;21.73;58.53;100604.13;2083228;28;47893;-57
2022/06/20 03:50:05;;;;;;;;;22.60;20.40;;;;;21.70;58.77;100605.19;2103466;28;47141;-57
2022/06/20 03:51:19;;;;;;;;;22.40;22.40;;;;;21.70;59.27;100615.13;2105775;28;47990;-57
2022/06/20 03:52:23;;;;;;;;;23.80;22.20;;;;;21.70;59.26;100620.53;2105724;28;47566;-58
2022/06/20 03:53:42;;;;;;;;;20.00;20.00;;;;;21.67;59.22;100612.66;2105648;28;47613;-58
2022/06/20 03:54:45;;;;;;;;;19.80;19.00;;;;;21.65;59.45;100607.34;2105573;28;47777;-58
2022/06/20 03:55:55;;;;;;;;;26.00;23.80;;;;;21.63;59.40;100603.91;2103098;28;47348;-58
2022/06/20 03:57:10;;;;;;;;;24.80;24.80;;;;;21.61;58.77;100602.28;2097582;28;47645;-58
2022/06/20 03:58:15;;;;;;;;;24.40;22.40;;;;;21.61;59.45;100605.00;2097313;28;46633;-58
2022/06/20 03:59:34;;;;;;;;;24.20;23.00;;;;;21.61;58.94;100605.00;2101947;28;47610;-59
2022/06/20 04:01:00;;;;;;;;;24.00;22.60;;;;;21.60;58.57;100600.56;2105761;28;47563;-58
2022/06/20 04:02:11;;;;;;;;;20.80;20.80;;;;;21.57;58.51;100596.22;2087674;28;47409;-58
2022/06/20 04:03:30;;;;;;;;;22.20;22.20;;;;;21.53;58.66;100602.81;2087592;28;47215;-56
2022/06/20 04:04:55;;;;;;;;;25.80;23.80;;;;;21.49;58.44;100600.44;2088410;28;47788;-58
2022/06/20 04:06:04;;;;;;;;;23.00;22.60;;;;;21.46;58.95;100593.38;2063183;28;47595;-58
2022/06/20 04:07:13;;;;;;;;;22.60;21.20;;;;;21.42;58.87;100600.84;2065976;28;47974;-57
2022/06/20 04:10:57;;;;;;;;;23.40;23.40;;;;;21.40;58.64;100605.47;2070953;28;48099;-59
2022/06/20 04:11:27;;;;;;;;;23.40;23.40;;;;;21.34;58.59;100619.41;2055416;28;47741;-58
2022/06/20 04:12:45;;;;;;;;;28.40;26.40;;;;;21.31;58.63;100624.13;2062476;28;47753;-58
2022/06/20 04:14:01;;;;;;;;;27.00;26.80;;;;;21.30;58.76;100638.59;2063537;28;47544;-58
2022/06/20 04:15:18;;;;;;;;;24.20;23.60;;;;;21.27;59.10;100634.28;2055299;28;47674;-57
2022/06/20 04:16:41;;;;;;;;;26.80;23.20;;;;;21.28;58.78;100637.84;2057086;28;47563;-57
2022/06/20 04:19:14;;;;;;;;;30.60;29.20;;;;;21.22;59.22;100641.81;2063602;28;47404;-57
2022/06/20 04:20:47;;;;;;;;;23.80;23.40;;;;;21.22;59.38;100638.25;2063275;28;47675;-58
2022/06/20 04:21:55;;;;;;;;;30.00;28.20;;;;;21.17;58.82;100636.69;2040175;28;48404;-59
2022/06/20 04:22:57;;;;;;;;;27.20;27.20;;;;;21.17;58.80;100639.38;2041473;28;47919;-56
2022/06/20 04:24:20;;;;;;;;;31.80;30.60;;;;;21.15;58.98;100641.34;2044546;28;47661;-58
2022/06/20 04:25:28;;;;;;;;;27.20;27.20;;;;;21.11;58.82;100642.50;2040060;28;47880;-58
2022/06/20 04:26:54;;;;;;;;;27.60;27.00;;;;;21.10;58.83;100640.78;2039223;28;47713;-58
2022/06/20 04:28:04;;;;;;;;;28.80;28.20;;;;;21.08;58.94;100641.81;2045156;28;47805;-59
2022/06/20 04:29:52;;;;;;;;;27.40;25.60;;;;;21.04;58.68;100643.88;2046892;28;47210;-58
2022/06/20 04:31:02;;;;;;;;;26.40;25.40;;;;;21.02;58.98;100650.34;2023046;29;47803;-57
2022/06/20 04:32:23;;;;;;;;;27.40;27.40;;;;;20.99;58.60;100655.94;2027126;29;47800;-58
2022/06/20 04:33:35;;;;;;;;;29.60;28.60;;;;;20.95;58.86;100652.56;2030849;29;47415;-59
2022/06/20 04:34:41;;;;;;;;;28.00;26.40;;;;;20.95;58.89;100657.09;2027644;29;47606;-57
2022/06/20 04:35:58;;;;;;;;;27.40;27.20;;;;;20.94;58.92;100649.97;2031057;29;47468;-56
2022/06/20 04:37:18;;;;;;;;;27.00;26.40;;;;;20.95;58.96;100652.56;2021173;29;47845;-56
2022/06/20 04:38:33;;;;;;;;;23.00;23.00;;;;;20.94;59.18;100658.06;2022910;29;48009;-59
2022/06/20 04:39:44;;;;;;;;;31.00;29.00;;;;;20.92;58.65;100655.47;2031584;28;47589;-59
2022/06/20 04:40:58;;;;;;;;;26.60;24.80;;;;;20.93;58.73;100654.50;2031046;29;47925;-59
2022/06/20 04:42:12;;;;;;;;;24.20;22.40;;;;;20.92;58.70;100655.47;2039196;28;47866;-59
2022/06/20 04:43:40;;;;;;;;;25.60;25.20;;;;;20.90;58.75;100653.84;2038967;28;47707;-58
2022/06/20 04:44:53;;;;;;;;;28.60;27.00;;;;;20.88;59.18;100653.97;2051578;28;47707;-57
2022/06/20 04:46:04;;;;;;;;;25.60;25.20;;;;;20.89;59.12;100654.81;2038720;28;48167;-56
2022/06/20 04:47:21;;;;;;;;;28.00;28.00;;;;;20.88;58.67;100653.09;2033119;28;45841;-58
2022/06/20 04:48:23;;;;;;;;;28.00;27.00;;;;;20.86;59.31;100662.16;2049364;28;47389;-59
2022/06/20 04:49:24;;;;;;;;;28.00;26.60;;;;;20.88;58.79;100661.19;2054641;28;47732;-58
2022/06/20 04:50:30;;;;;;;;;27.75;27.25;;;;;20.88;58.87;100672.84;2055053;28;47858;-57
2022/06/20 04:51:35;;;;;;;;;26.40;26.40;;;;;20.88;59.07;100675.53;2055067;28;47719;-58
2022/06/20 04:52:35;;;;;;;;;26.60;25.40;;;;;20.86;58.92;100682.88;2051813;28;47839;-57
2022/06/20 04:53:43;;;;;;;;;25.50;23.75;;;;;20.84;58.86;100688.38;2054727;28;46606;-58
2022/06/20 04:54:44;;;;;;;;;25.80;25.20;;;;;20.82;59.03;100689.41;2031498;28;48135;-57
2022/06/20 04:55:49;;;;;;;;;25.25;25.25;;;;;20.80;59.04;100686.81;2034311;28;47990;-59
2022/06/20 04:56:54;;;;;;;;;26.80;25.80;;;;;20.78;58.58;100686.03;2047614;28;47222;-59
2022/06/20 04:57:58;;;;;;;;;25.60;23.40;;;;;20.79;59.19;100687.78;2055231;28;45831;-59
2022/06/20 04:59:10;;;;;;;;;30.40;27.40;;;;;20.80;58.81;100688.66;2029943;28;47653;-59
2022/06/20 05:00:25;;;;;;;;;27.80;24.40;;;;;20.80;58.83;100691.34;2045662;28;47567;-59
2022/06/20 05:01:30;;;;;;;;;22.20;21.40;;;;;20.78;58.77;100696.84;2065972;28;47801;-59
2022/06/20 05:02:31;;;;;;;;;21.60;21.00;;;;;20.80;58.91;100702.13;2072777;28;48314;-59
2022/06/20 05:03:55;;;;;;;;;24.50;23.50;;;;;20.79;58.55;100703.09;2072549;28;47800;-56
2022/06/20 05:04:59;;;;;;;;;29.20;28.00;;;;;20.81;58.42;100703.84;2079044;28;47575;-58
2022/06/20 05:06:00;;;;;;;;;25.20;24.00;;;;;20.78;58.99;100702.22;2070743;28;47786;-57
2022/06/20 05:07:13;;;;;;;;;27.40;27.40;;;;;20.79;58.98;100698.56;2075098;28;47445;-58
2022/06/20 05:08:17;;;;;;;;;24.00;22.80;;;;;20.81;59.01;100703.84;2095548;28;47669;-59
2022/06/20 05:09:56;;;;;;;;;23.80;23.20;;;;;20.79;58.29;100709.34;2105510;28;48419;-59
2022/06/20 05:11:08;;;;;;;;;22.40;22.00;;;;;20.79;58.76;100712.06;2105192;28;47945;-57